sensor_id;sensor_type;location;lat;lon;timestamp;P1;durP1;ratioP1;P2;durP2;ratioP2
26963;SDS011;14521;48.148;-1.656;2023-02-03T00:01:19;1.35;;;1.10;;
26963;SDS011;14521;48.148;-1.656;2023-02-03T00:04:41;1.20;;;0.68;;
26963;SDS011;14521;48.148;-1.656;2023-02-03T00:08:04;1.65;;;1.30;;
26963;SDS011;14521;48.148;-1.656;2023-02-03T00:11:28;1.52;;;0.70;;
26963;SDS011;14521;48.148;-1.656;2023-02-03T00:14:51;1.42;;;0.77;;
26963;SDS011;14521;48.148;-1.656;2023-02-03T00:18:13;7.63;;;1.00;;
26963;SDS011;14521;48.148;-1.656;2023-02-03T00:21:36;5.13;;;1.20;;
26963;SDS011;14521;48.148;-1.656;2023-02-03T00:24:58;6.40;;;1.25;;
26963;SDS011;14521;48.148;-1.656;2023-02-03T00:28:20;5.22;;;1.20;;
26963;SDS011;14521;48.148;-1.656;2023-02-03T00:31:43;3.85;;;0.90;;
26963;SDS011;14521;48.148;-1.656;2023-02-03T00:35:05;3.85;;;0.90;;
26963;SDS011;14521;48.148;-1.656;2023-02-03T00:38:30;0.95;;;0.90;;
26963;SDS011;14521;48.148;-1.656;2023-02-03T00:41:52;1.58;;;0.70;;
26963;SDS011;14521;48.148;-1.656;2023-02-03T00:45:14;1.63;;;0.70;;
26963;SDS011;14521;48.148;-1.656;2023-02-03T00:48:37;3.55;;;0.82;;
26963;SDS011;14521;48.148;-1.656;2023-02-03T00:51:59;3.08;;;0.95;;
26963;SDS011;14521;48.148;-1.656;2023-02-03T00:55:22;2.85;;;0.70;;
26963;SDS011;14521;48.148;-1.656;2023-02-03T00:58:44;4.72;;;0.93;;
26963;SDS011;14521;48.148;-1.656;2023-02-03T01:02:07;2.75;;;1.15;;
26963;SDS011;14521;48.148;-1.656;2023-02-03T01:05:29;2.78;;;1.05;;
26963;SDS011;14521;48.148;-1.656;2023-02-03T01:08:53;1.58;;;1.02;;
26963;SDS011;14521;48.148;-1.656;2023-02-03T01:12:15;1.02;;;0.80;;
26963;SDS011;14521;48.148;-1.656;2023-02-03T01:15:43;1.73;;;0.90;;
26963;SDS011;14521;48.148;-1.656;2023-02-03T01:19:07;3.35;;;0.98;;
26963;SDS011;14521;48.148;-1.656;2023-02-03T01:22:30;1.38;;;0.80;;
26963;SDS011;14521;48.148;-1.656;2023-02-03T01:25:52;3.70;;;1.10;;
26963;SDS011;14521;48.148;-1.656;2023-02-03T01:29:15;1.95;;;0.70;;
26963;SDS011;14521;48.148;-1.656;2023-02-03T01:32:37;4.38;;;0.85;;
26963;SDS011;14521;48.148;-1.656;2023-02-03T01:35:59;2.28;;;0.93;;
26963;SDS011;14521;48.148;-1.656;2023-02-03T01:39:23;2.33;;;0.98;;
26963;SDS011;14521;48.148;-1.656;2023-02-03T01:42:47;2.08;;;1.00;;
26963;SDS011;14521;48.148;-1.656;2023-02-03T01:46:16;1.15;;;1.05;;
26963;SDS011;14521;48.148;-1.656;2023-02-03T01:53:37;2.03;;;1.00;;
26963;SDS011;14521;48.148;-1.656;2023-02-03T01:57:02;2.38;;;0.95;;
26963;SDS011;14521;48.148;-1.656;2023-02-03T02:00:27;3.28;;;1.30;;
26963;SDS011;14521;48.148;-1.656;2023-02-03T02:03:51;1.73;;;1.17;;
26963;SDS011;14521;48.148;-1.656;2023-02-03T02:07:16;2.63;;;1.23;;
26963;SDS011;14521;48.148;-1.656;2023-02-03T02:10:38;2.40;;;1.00;;
26963;SDS011;14521;48.148;-1.656;2023-02-03T02:14:01;1.77;;;1.00;;
26963;SDS011;14521;48.148;-1.656;2023-02-03T02:39:15;1.75;;;1.20;;
26963;SDS011;14521;48.148;-1.656;2023-02-03T02:42:53;3.42;;;0.98;;
26963;SDS011;14521;48.148;-1.656;2023-02-03T02:46:42;1.08;;;0.70;;
26963;SDS011;14521;48.148;-1.656;2023-02-03T02:50:12;0.90;;;0.63;;
26963;SDS011;14521;48.148;-1.656;2023-02-03T02:53:40;2.08;;;1.00;;
26963;SDS011;14521;48.148;-1.656;2023-02-03T02:57:08;1.30;;;0.70;;
26963;SDS011;14521;48.148;-1.656;2023-02-03T03:00:34;2.00;;;0.63;;
26963;SDS011;14521;48.148;-1.656;2023-02-03T03:03:57;2.53;;;0.50;;
26963;SDS011;14521;48.148;-1.656;2023-02-03T03:07:27;1.48;;;0.85;;
26963;SDS011;14521;48.148;-1.656;2023-02-03T03:10:51;1.40;;;0.75;;
26963;SDS011;14521;48.148;-1.656;2023-02-03T03:14:17;1.80;;;0.85;;
26963;SDS011;14521;48.148;-1.656;2023-02-03T03:17:50;1.00;;;0.68;;
26963;SDS011;14521;48.148;-1.656;2023-02-03T03:21:35;1.85;;;0.75;;
26963;SDS011;14521;48.148;-1.656;2023-02-03T03:25:20;1.08;;;0.45;;
26963;SDS011;14521;48.148;-1.656;2023-02-03T03:28:50;1.13;;;0.55;;
26963;SDS011;14521;48.148;-1.656;2023-02-03T03:32:17;0.65;;;0.65;;
26963;SDS011;14521;48.148;-1.656;2023-02-03T03:35:45;0.93;;;0.40;;
26963;SDS011;14521;48.148;-1.656;2023-02-03T03:39:23;1.67;;;0.60;;
26963;SDS011;14521;48.148;-1.656;2023-02-03T03:46:52;1.15;;;0.60;;
26963;SDS011;14521;48.148;-1.656;2023-02-03T03:50:26;0.57;;;0.30;;
26963;SDS011;14521;48.148;-1.656;2023-02-03T03:53:52;0.63;;;0.40;;
26963;SDS011;14521;48.148;-1.656;2023-02-03T03:57:22;1.25;;;0.45;;
26963;SDS011;14521;48.148;-1.656;2023-02-03T04:00:49;1.60;;;0.43;;
26963;SDS011;14521;48.148;-1.656;2023-02-03T04:04:14;0.65;;;0.40;;
26963;SDS011;14521;48.148;-1.656;2023-02-03T04:07:41;0.50;;;0.50;;
26963;SDS011;14521;48.148;-1.656;2023-02-03T04:11:05;0.50;;;0.43;;
26963;SDS011;14521;48.148;-1.656;2023-02-03T04:14:28;0.75;;;0.60;;
26963;SDS011;14521;48.148;-1.656;2023-02-03T04:17:51;1.60;;;0.50;;
26963;SDS011;14521;48.148;-1.656;2023-02-03T04:21:15;1.92;;;0.38;;
26963;SDS011;14521;48.148;-1.656;2023-02-03T04:24:37;0.68;;;0.60;;
26963;SDS011;14521;48.148;-1.656;2023-02-03T04:27:59;0.35;;;0.30;;
26963;SDS011;14521;48.148;-1.656;2023-02-03T04:31:22;1.55;;;0.47;;
26963;SDS011;14521;48.148;-1.656;2023-02-03T04:34:44;2.58;;;0.50;;
26963;SDS011;14521;48.148;-1.656;2023-02-03T04:38:07;0.55;;;0.40;;
26963;SDS011;14521;48.148;-1.656;2023-02-03T04:41:29;2.55;;;0.30;;
26963;SDS011;14521;48.148;-1.656;2023-02-03T04:44:51;0.65;;;0.30;;
26963;SDS011;14521;48.148;-1.656;2023-02-03T04:48:14;0.40;;;0.30;;
26963;SDS011;14521;48.148;-1.656;2023-02-03T04:51:36;0.82;;;0.30;;
26963;SDS011;14521;48.148;-1.656;2023-02-03T04:54:58;2.13;;;0.30;;
26963;SDS011;14521;48.148;-1.656;2023-02-03T04:58:21;0.30;;;0.30;;
26963;SDS011;14521;48.148;-1.656;2023-02-03T05:01:43;1.83;;;0.30;;
26963;SDS011;14521;48.148;-1.656;2023-02-03T05:05:05;2.47;;;0.40;;
26963;SDS011;14521;48.148;-1.656;2023-02-03T05:08:28;1.13;;;0.28;;
26963;SDS011;14521;48.148;-1.656;2023-02-03T05:11:51;2.70;;;0.28;;
26963;SDS011;14521;48.148;-1.656;2023-02-03T05:15:14;0.52;;;0.30;;
26963;SDS011;14521;48.148;-1.656;2023-02-03T05:18:36;2.00;;;0.50;;
26963;SDS011;14521;48.148;-1.656;2023-02-03T05:21:58;2.92;;;0.40;;
26963;SDS011;14521;48.148;-1.656;2023-02-03T05:25:21;0.32;;;0.22;;
26963;SDS011;14521;48.148;-1.656;2023-02-03T05:28:43;0.77;;;0.30;;
26963;SDS011;14521;48.148;-1.656;2023-02-03T05:32:05;5.20;;;0.40;;
26963;SDS011;14521;48.148;-1.656;2023-02-03T05:35:28;0.40;;;0.38;;
26963;SDS011;14521;48.148;-1.656;2023-02-03T05:38:50;0.55;;;0.25;;
26963;SDS011;14521;48.148;-1.656;2023-02-03T05:42:12;2.47;;;0.30;;
26963;SDS011;14521;48.148;-1.656;2023-02-03T05:45:34;0.20;;;0.20;;
26963;SDS011;14521;48.148;-1.656;2023-02-03T05:48:57;2.17;;;0.30;;
26963;SDS011;14521;48.148;-1.656;2023-02-03T05:52:19;0.43;;;0.30;;
26963;SDS011;14521;48.148;-1.656;2023-02-03T05:55:41;0.73;;;0.32;;
26963;SDS011;14521;48.148;-1.656;2023-02-03T05:59:04;0.30;;;0.20;;
26963;SDS011;14521;48.148;-1.656;2023-02-03T06:02:26;0.95;;;0.20;;
26963;SDS011;14521;48.148;-1.656;2023-02-03T06:05:48;0.20;;;0.17;;
26963;SDS011;14521;48.148;-1.656;2023-02-03T06:09:11;0.47;;;0.32;;
26963;SDS011;14521;48.148;-1.656;2023-02-03T06:12:33;1.20;;;0.20;;
26963;SDS011;14521;48.148;-1.656;2023-02-03T06:15:55;2.90;;;0.30;;
26963;SDS011;14521;48.148;-1.656;2023-02-03T06:19:18;0.60;;;0.20;;
26963;SDS011;14521;48.148;-1.656;2023-02-03T06:22:40;0.43;;;0.28;;
26963;SDS011;14521;48.148;-1.656;2023-02-03T06:26:03;1.48;;;0.35;;
26963;SDS011;14521;48.148;-1.656;2023-02-03T06:29:25;0.40;;;0.20;;
26963;SDS011;14521;48.148;-1.656;2023-02-03T06:32:48;0.85;;;0.63;;
26963;SDS011;14521;48.148;-1.656;2023-02-03T06:36:10;3.05;;;0.38;;
26963;SDS011;14521;48.148;-1.656;2023-02-03T06:39:33;1.20;;;0.38;;
26963;SDS011;14521;48.148;-1.656;2023-02-03T06:42:55;0.22;;;0.17;;
26963;SDS011;14521;48.148;-1.656;2023-02-03T06:46:17;0.63;;;0.30;;
26963;SDS011;14521;48.148;-1.656;2023-02-03T06:49:40;0.85;;;0.30;;
26963;SDS011;14521;48.148;-1.656;2023-02-03T06:53:02;0.63;;;0.30;;
26963;SDS011;14521;48.148;-1.656;2023-02-03T06:56:24;0.50;;;0.30;;
26963;SDS011;14521;48.148;-1.656;2023-02-03T06:59:46;1.13;;;0.30;;
26963;SDS011;14521;48.148;-1.656;2023-02-03T07:03:09;0.85;;;0.40;;
26963;SDS011;14521;48.148;-1.656;2023-02-03T07:06:31;0.43;;;0.30;;
26963;SDS011;14521;48.148;-1.656;2023-02-03T07:09:54;1.45;;;0.30;;
26963;SDS011;14521;48.148;-1.656;2023-02-03T07:13:16;5.20;;;0.55;;
26963;SDS011;14521;48.148;-1.656;2023-02-03T07:16:39;2.35;;;0.50;;
26963;SDS011;14521;48.148;-1.656;2023-02-03T07:20:01;1.40;;;0.30;;
26963;SDS011;14521;48.148;-1.656;2023-02-03T07:23:24;0.30;;;0.25;;
26963;SDS011;14521;48.148;-1.656;2023-02-03T07:26:46;3.05;;;0.30;;
26963;SDS011;14521;48.148;-1.656;2023-02-03T07:30:08;0.25;;;0.20;;
26963;SDS011;14521;48.148;-1.656;2023-02-03T07:33:31;0.77;;;0.30;;
26963;SDS011;14521;48.148;-1.656;2023-02-03T07:36:54;0.15;;;0.10;;
26963;SDS011;14521;48.148;-1.656;2023-02-03T07:40:16;0.60;;;0.30;;
26963;SDS011;14521;48.148;-1.656;2023-02-03T07:43:39;2.05;;;0.77;;
26963;SDS011;14521;48.148;-1.656;2023-02-03T07:47:02;1.50;;;0.50;;
26963;SDS011;14521;48.148;-1.656;2023-02-03T07:50:24;1.75;;;0.30;;
26963;SDS011;14521;48.148;-1.656;2023-02-03T07:53:47;1.55;;;0.30;;
26963;SDS011;14521;48.148;-1.656;2023-02-03T07:57:09;0.28;;;0.25;;
26963;SDS011;14521;48.148;-1.656;2023-02-03T08:00:31;1.08;;;0.30;;
26963;SDS011;14521;48.148;-1.656;2023-02-03T08:03:54;0.77;;;0.20;;
26963;SDS011;14521;48.148;-1.656;2023-02-03T08:07:16;0.45;;;0.30;;
26963;SDS011;14521;48.148;-1.656;2023-02-03T08:10:38;1.08;;;0.20;;
26963;SDS011;14521;48.148;-1.656;2023-02-03T08:14:00;2.13;;;0.32;;
26963;SDS011;14521;48.148;-1.656;2023-02-03T08:17:23;0.45;;;0.32;;
26963;SDS011;14521;48.148;-1.656;2023-02-03T08:20:46;1.33;;;0.30;;
26963;SDS011;14521;48.148;-1.656;2023-02-03T08:24:09;2.10;;;0.38;;
26963;SDS011;14521;48.148;-1.656;2023-02-03T08:27:31;0.75;;;0.25;;
26963;SDS011;14521;48.148;-1.656;2023-02-03T08:30:53;3.13;;;0.32;;
26963;SDS011;14521;48.148;-1.656;2023-02-03T08:34:17;7.78;;;0.47;;
26963;SDS011;14521;48.148;-1.656;2023-02-03T08:37:39;1.02;;;0.30;;
26963;SDS011;14521;48.148;-1.656;2023-02-03T08:41:07;6.72;;;0.43;;
26963;SDS011;14521;48.148;-1.656;2023-02-03T08:44:34;2.67;;;0.28;;
26963;SDS011;14521;48.148;-1.656;2023-02-03T08:47:56;1.70;;;0.30;;
26963;SDS011;14521;48.148;-1.656;2023-02-03T08:51:19;6.95;;;0.50;;
26963;SDS011;14521;48.148;-1.656;2023-02-03T08:54:41;4.15;;;0.47;;
26963;SDS011;14521;48.148;-1.656;2023-02-03T08:58:04;3.70;;;0.40;;
26963;SDS011;14521;48.148;-1.656;2023-02-03T09:01:26;1.70;;;0.35;;
26963;SDS011;14521;48.148;-1.656;2023-02-03T09:04:48;1.15;;;0.80;;
26963;SDS011;14521;48.148;-1.656;2023-02-03T09:08:11;2.22;;;1.52;;
26963;SDS011;14521;48.148;-1.656;2023-02-03T09:11:33;5.43;;;3.28;;
26963;SDS011;14521;48.148;-1.656;2023-02-03T09:14:55;8.02;;;5.00;;
26963;SDS011;14521;48.148;-1.656;2023-02-03T09:18:18;45.60;;;22.45;;
26963;SDS011;14521;48.148;-1.656;2023-02-03T09:21:40;37.80;;;20.77;;
26963;SDS011;14521;48.148;-1.656;2023-02-03T09:25:08;32.45;;;20.67;;
26963;SDS011;14521;48.148;-1.656;2023-02-03T09:28:30;30.35;;;19.23;;
26963;SDS011;14521;48.148;-1.656;2023-02-03T09:31:54;37.03;;;18.42;;
26963;SDS011;14521;48.148;-1.656;2023-02-03T09:35:17;31.25;;;18.45;;
26963;SDS011;14521;48.148;-1.656;2023-02-03T09:38:40;28.92;;;15.68;;
26963;SDS011;14521;48.148;-1.656;2023-02-03T09:46:31;25.13;;;15.23;;
26963;SDS011;14521;48.148;-1.656;2023-02-03T09:49:51;21.77;;;13.23;;
26963;SDS011;14521;48.148;-1.656;2023-02-03T09:53:22;21.60;;;14.13;;
26963;SDS011;14521;48.148;-1.656;2023-02-03T09:56:46;26.75;;;13.88;;
26963;SDS011;14521;48.148;-1.656;2023-02-03T10:00:15;21.00;;;12.70;;
26963;SDS011;14521;48.148;-1.656;2023-02-03T10:04:00;17.90;;;10.82;;
26963;SDS011;14521;48.148;-1.656;2023-02-03T10:07:39;18.73;;;10.75;;
26963;SDS011;14521;48.148;-1.656;2023-02-03T10:15:00;12.80;;;9.65;;
26963;SDS011;14521;48.148;-1.656;2023-02-03T10:18:52;19.48;;;9.63;;
26963;SDS011;14521;48.148;-1.656;2023-02-03T10:22:19;12.90;;;9.05;;
26963;SDS011;14521;48.148;-1.656;2023-02-03T10:25:47;14.40;;;8.35;;
26963;SDS011;14521;48.148;-1.656;2023-02-03T10:29:19;10.93;;;8.27;;
26963;SDS011;14521;48.148;-1.656;2023-02-03T10:32:54;12.13;;;7.78;;
26963;SDS011;14521;48.148;-1.656;2023-02-03T10:40:16;15.70;;;7.72;;
26963;SDS011;14521;48.148;-1.656;2023-02-03T10:43:39;10.10;;;6.75;;
26963;SDS011;14521;48.148;-1.656;2023-02-03T10:47:14;12.85;;;6.97;;
26963;SDS011;14521;48.148;-1.656;2023-02-03T10:50:56;9.57;;;6.05;;
26963;SDS011;14521;48.148;-1.656;2023-02-03T10:54:29;9.18;;;6.47;;
26963;SDS011;14521;48.148;-1.656;2023-02-03T10:57:56;8.63;;;6.20;;
26963;SDS011;14521;48.148;-1.656;2023-02-03T11:01:20;7.47;;;5.15;;
26963;SDS011;14521;48.148;-1.656;2023-02-03T11:04:45;9.70;;;6.30;;
26963;SDS011;14521;48.148;-1.656;2023-02-03T11:08:14;8.77;;;5.70;;
26963;SDS011;14521;48.148;-1.656;2023-02-03T11:11:36;5.72;;;4.55;;
26963;SDS011;14521;48.148;-1.656;2023-02-03T11:15:04;8.77;;;4.78;;
26963;SDS011;14521;48.148;-1.656;2023-02-03T11:18:34;4.68;;;4.22;;
26963;SDS011;14521;48.148;-1.656;2023-02-03T11:22:03;6.10;;;4.43;;
26963;SDS011;14521;48.148;-1.656;2023-02-03T11:25:27;8.32;;;4.53;;
26963;SDS011;14521;48.148;-1.656;2023-02-03T11:28:55;6.40;;;3.70;;
26963;SDS011;14521;48.148;-1.656;2023-02-03T11:32:27;6.50;;;3.38;;
26963;SDS011;14521;48.148;-1.656;2023-02-03T11:36:02;5.50;;;2.88;;
26963;SDS011;14521;48.148;-1.656;2023-02-03T11:39:27;6.38;;;3.47;;
26963;SDS011;14521;48.148;-1.656;2023-02-03T11:46:18;3.50;;;3.20;;
26963;SDS011;14521;48.148;-1.656;2023-02-03T12:00:37;3.33;;;2.92;;
26963;SDS011;14521;48.148;-1.656;2023-02-03T12:30:13;6.10;;;1.85;;
26963;SDS011;14521;48.148;-1.656;2023-02-03T12:33:46;3.67;;;1.67;;
26963;SDS011;14521;48.148;-1.656;2023-02-03T12:40:59;2.10;;;1.80;;
26963;SDS011;14521;48.148;-1.656;2023-02-03T12:44:27;2.22;;;1.42;;
26963;SDS011;14521;48.148;-1.656;2023-02-03T12:47:54;3.08;;;1.40;;
26963;SDS011;14521;48.148;-1.656;2023-02-03T12:51:28;2.92;;;1.60;;
26963;SDS011;14521;48.148;-1.656;2023-02-03T12:58:37;2.53;;;1.40;;
26963;SDS011;14521;48.148;-1.656;2023-02-03T13:02:13;2.17;;;1.20;;
26963;SDS011;14521;48.148;-1.656;2023-02-03T13:12:58;1.38;;;1.10;;
26963;SDS011;14521;48.148;-1.656;2023-02-03T13:16:24;1.80;;;1.05;;
26963;SDS011;14521;48.148;-1.656;2023-02-03T13:20:00;1.55;;;1.15;;
26963;SDS011;14521;48.148;-1.656;2023-02-03T13:23:26;1.20;;;1.08;;
26963;SDS011;14521;48.148;-1.656;2023-02-03T13:42:07;3.42;;;0.70;;
26963;SDS011;14521;48.148;-1.656;2023-02-03T13:45:15;1.25;;;0.77;;
26963;SDS011;14521;48.148;-1.656;2023-02-03T13:48:46;0.90;;;0.80;;
26963;SDS011;14521;48.148;-1.656;2023-02-03T13:52:22;0.60;;;0.60;;
26963;SDS011;14521;48.148;-1.656;2023-02-03T14:03:17;0.80;;;0.80;;
26963;SDS011;14521;48.148;-1.656;2023-02-03T14:10:19;2.42;;;0.77;;
26963;SDS011;14521;48.148;-1.656;2023-02-03T14:13:44;0.50;;;0.50;;
26963;SDS011;14521;48.148;-1.656;2023-02-03T14:17:20;0.50;;;0.50;;
26963;SDS011;14521;48.148;-1.656;2023-02-03T14:21:11;4.05;;;0.70;;
26963;SDS011;14521;48.148;-1.656;2023-02-03T14:24:38;1.17;;;0.50;;
26963;SDS011;14521;48.148;-1.656;2023-02-03T14:28:09;2.13;;;0.60;;
26963;SDS011;14521;48.148;-1.656;2023-02-03T14:31:50;0.40;;;0.30;;
26963;SDS011;14521;48.148;-1.656;2023-02-03T14:35:37;1.52;;;0.60;;
26963;SDS011;14521;48.148;-1.656;2023-02-03T14:39:03;0.98;;;0.60;;
26963;SDS011;14521;48.148;-1.656;2023-02-03T14:50:33;0.30;;;0.30;;
26963;SDS011;14521;48.148;-1.656;2023-02-03T14:57:52;0.43;;;0.43;;
26963;SDS011;14521;48.148;-1.656;2023-02-03T15:08:43;1.90;;;0.32;;
26963;SDS011;14521;48.148;-1.656;2023-02-03T15:12:43;3.55;;;0.40;;
26963;SDS011;14521;48.148;-1.656;2023-02-03T15:15:59;0.68;;;0.40;;
26963;SDS011;14521;48.148;-1.656;2023-02-03T15:19:26;0.68;;;0.40;;
26963;SDS011;14521;48.148;-1.656;2023-02-03T15:26:19;0.40;;;0.30;;
26963;SDS011;14521;48.148;-1.656;2023-02-03T15:29:45;0.38;;;0.30;;
26963;SDS011;14521;48.148;-1.656;2023-02-03T15:33:13;0.40;;;0.40;;
26963;SDS011;14521;48.148;-1.656;2023-02-03T15:36:39;0.82;;;0.30;;
26963;SDS011;14521;48.148;-1.656;2023-02-03T15:40:06;0.63;;;0.40;;
26963;SDS011;14521;48.148;-1.656;2023-02-03T15:43:35;0.57;;;0.40;;
26963;SDS011;14521;48.148;-1.656;2023-02-03T15:47:01;0.80;;;0.40;;
26963;SDS011;14521;48.148;-1.656;2023-02-03T15:50:34;0.20;;;0.20;;
26963;SDS011;14521;48.148;-1.656;2023-02-03T15:54:02;0.65;;;0.40;;
26963;SDS011;14521;48.148;-1.656;2023-02-03T15:57:33;0.30;;;0.30;;
26963;SDS011;14521;48.148;-1.656;2023-02-03T16:00:58;0.40;;;0.38;;
26963;SDS011;14521;48.148;-1.656;2023-02-03T16:04:24;0.50;;;0.43;;
26963;SDS011;14521;48.148;-1.656;2023-02-03T16:07:47;0.63;;;0.30;;
26963;SDS011;14521;48.148;-1.656;2023-02-03T16:11:29;0.55;;;0.30;;
26963;SDS011;14521;48.148;-1.656;2023-02-03T16:14:54;0.40;;;0.30;;
26963;SDS011;14521;48.148;-1.656;2023-02-03T16:18:17;0.15;;;0.15;;
26963;SDS011;14521;48.148;-1.656;2023-02-03T16:25:20;0.30;;;0.30;;
26963;SDS011;14521;48.148;-1.656;2023-02-03T16:28:54;0.40;;;0.30;;
26963;SDS011;14521;48.148;-1.656;2023-02-03T16:32:55;0.43;;;0.20;;
26963;SDS011;14521;48.148;-1.656;2023-02-03T16:36:41;0.47;;;0.40;;
26963;SDS011;14521;48.148;-1.656;2023-02-03T16:40:23;0.20;;;0.20;;
26963;SDS011;14521;48.148;-1.656;2023-02-03T16:44:04;0.28;;;0.25;;
26963;SDS011;14521;48.148;-1.656;2023-02-03T16:47:45;0.52;;;0.30;;
26963;SDS011;14521;48.148;-1.656;2023-02-03T16:51:28;0.22;;;0.22;;
26963;SDS011;14521;48.148;-1.656;2023-02-03T16:55:00;0.20;;;0.20;;
26963;SDS011;14521;48.148;-1.656;2023-02-03T16:58:22;0.30;;;0.22;;
26963;SDS011;14521;48.148;-1.656;2023-02-03T17:01:45;0.73;;;0.20;;
26963;SDS011;14521;48.148;-1.656;2023-02-03T17:05:07;0.77;;;0.20;;
26963;SDS011;14521;48.148;-1.656;2023-02-03T17:08:30;1.08;;;0.75;;
26963;SDS011;14521;48.148;-1.656;2023-02-03T17:11:52;0.75;;;0.40;;
26963;SDS011;14521;48.148;-1.656;2023-02-03T17:15:15;3.22;;;0.28;;
26963;SDS011;14521;48.148;-1.656;2023-02-03T17:18:38;1.75;;;0.20;;
26963;SDS011;14521;48.148;-1.656;2023-02-03T17:22:00;5.13;;;0.30;;
26963;SDS011;14521;48.148;-1.656;2023-02-03T17:25:22;2.55;;;0.40;;
26963;SDS011;14521;48.148;-1.656;2023-02-03T17:28:45;1.45;;;0.40;;
26963;SDS011;14521;48.148;-1.656;2023-02-03T17:32:07;4.38;;;0.50;;
26963;SDS011;14521;48.148;-1.656;2023-02-03T17:35:30;1.63;;;0.30;;
26963;SDS011;14521;48.148;-1.656;2023-02-03T17:38:53;1.65;;;0.30;;
26963;SDS011;14521;48.148;-1.656;2023-02-03T17:42:35;0.30;;;0.30;;
26963;SDS011;14521;48.148;-1.656;2023-02-03T17:46:16;0.63;;;0.30;;
26963;SDS011;14521;48.148;-1.656;2023-02-03T17:49:58;0.90;;;0.20;;
26963;SDS011;14521;48.148;-1.656;2023-02-03T17:53:38;0.45;;;0.10;;
26963;SDS011;14521;48.148;-1.656;2023-02-03T17:57:01;0.30;;;0.10;;
26963;SDS011;14521;48.148;-1.656;2023-02-03T18:00:23;1.75;;;0.20;;
26963;SDS011;14521;48.148;-1.656;2023-02-03T18:03:50;0.45;;;0.30;;
26963;SDS011;14521;48.148;-1.656;2023-02-03T18:07:15;2.08;;;0.30;;
26963;SDS011;14521;48.148;-1.656;2023-02-03T18:10:37;0.50;;;0.40;;
26963;SDS011;14521;48.148;-1.656;2023-02-03T18:14:00;0.25;;;0.25;;
26963;SDS011;14521;48.148;-1.656;2023-02-03T18:17:22;3.85;;;0.28;;
26963;SDS011;14521;48.148;-1.656;2023-02-03T18:20:45;0.63;;;0.30;;
26963;SDS011;14521;48.148;-1.656;2023-02-03T18:24:08;0.30;;;0.30;;
26963;SDS011;14521;48.148;-1.656;2023-02-03T18:27:32;1.50;;;0.50;;
26963;SDS011;14521;48.148;-1.656;2023-02-03T18:31:01;1.20;;;0.38;;
26963;SDS011;14521;48.148;-1.656;2023-02-03T18:34:29;1.10;;;0.50;;
26963;SDS011;14521;48.148;-1.656;2023-02-03T18:37:52;0.30;;;0.28;;
26963;SDS011;14521;48.148;-1.656;2023-02-03T18:41:18;1.73;;;0.38;;
26963;SDS011;14521;48.148;-1.656;2023-02-03T18:44:43;1.05;;;0.50;;
26963;SDS011;14521;48.148;-1.656;2023-02-03T18:48:05;0.95;;;0.47;;
26963;SDS011;14521;48.148;-1.656;2023-02-03T18:51:27;2.03;;;0.30;;
26963;SDS011;14521;48.148;-1.656;2023-02-03T18:54:50;5.13;;;0.30;;
26963;SDS011;14521;48.148;-1.656;2023-02-03T18:58:13;4.03;;;0.30;;
26963;SDS011;14521;48.148;-1.656;2023-02-03T19:01:35;0.68;;;0.40;;
26963;SDS011;14521;48.148;-1.656;2023-02-03T19:04:59;1.55;;;0.40;;
26963;SDS011;14521;48.148;-1.656;2023-02-03T19:08:21;2.08;;;0.60;;
26963;SDS011;14521;48.148;-1.656;2023-02-03T19:11:44;1.35;;;0.40;;
26963;SDS011;14521;48.148;-1.656;2023-02-03T19:15:07;2.75;;;0.32;;
26963;SDS011;14521;48.148;-1.656;2023-02-03T19:18:31;2.20;;;0.50;;
26963;SDS011;14521;48.148;-1.656;2023-02-03T19:21:53;4.53;;;0.40;;
26963;SDS011;14521;48.148;-1.656;2023-02-03T19:25:16;2.22;;;0.60;;
26963;SDS011;14521;48.148;-1.656;2023-02-03T19:28:38;1.65;;;0.68;;
26963;SDS011;14521;48.148;-1.656;2023-02-03T19:32:01;1.20;;;0.40;;
26963;SDS011;14521;48.148;-1.656;2023-02-03T19:35:24;1.20;;;0.63;;
26963;SDS011;14521;48.148;-1.656;2023-02-03T19:38:46;1.23;;;0.52;;
26963;SDS011;14521;48.148;-1.656;2023-02-03T19:42:09;2.75;;;0.52;;
26963;SDS011;14521;48.148;-1.656;2023-02-03T19:45:32;1.88;;;0.68;;
26963;SDS011;14521;48.148;-1.656;2023-02-03T19:48:54;5.13;;;0.55;;
26963;SDS011;14521;48.148;-1.656;2023-02-03T19:52:17;8.95;;;1.17;;
26963;SDS011;14521;48.148;-1.656;2023-02-03T19:55:40;2.88;;;0.52;;
26963;SDS011;14521;48.148;-1.656;2023-02-03T19:59:03;1.00;;;0.60;;
26963;SDS011;14521;48.148;-1.656;2023-02-03T20:02:26;5.38;;;0.80;;
26963;SDS011;14521;48.148;-1.656;2023-02-03T20:05:48;4.93;;;0.80;;
26963;SDS011;14521;48.148;-1.656;2023-02-03T20:09:13;0.57;;;0.52;;
26963;SDS011;14521;48.148;-1.656;2023-02-03T20:12:35;3.72;;;0.70;;
26963;SDS011;14521;48.148;-1.656;2023-02-03T20:15:58;0.90;;;0.90;;
26963;SDS011;14521;48.148;-1.656;2023-02-03T20:19:20;1.13;;;0.68;;
26963;SDS011;14521;48.148;-1.656;2023-02-03T20:22:43;0.93;;;0.93;;
26963;SDS011;14521;48.148;-1.656;2023-02-03T20:26:05;1.50;;;0.80;;
26963;SDS011;14521;48.148;-1.656;2023-02-03T20:29:27;2.15;;;0.70;;
26963;SDS011;14521;48.148;-1.656;2023-02-03T20:32:49;1.05;;;0.73;;
26963;SDS011;14521;48.148;-1.656;2023-02-03T20:36:12;1.70;;;0.73;;
26963;SDS011;14521;48.148;-1.656;2023-02-03T20:39:34;1.23;;;0.80;;
26963;SDS011;14521;48.148;-1.656;2023-02-03T20:42:57;0.77;;;0.63;;
26963;SDS011;14521;48.148;-1.656;2023-02-03T20:46:23;3.83;;;0.70;;
26963;SDS011;14521;48.148;-1.656;2023-02-03T20:49:46;0.70;;;0.60;;
26963;SDS011;14521;48.148;-1.656;2023-02-03T20:53:14;1.95;;;0.52;;
26963;SDS011;14521;48.148;-1.656;2023-02-03T20:56:38;0.55;;;0.55;;
26963;SDS011;14521;48.148;-1.656;2023-02-03T21:00:00;0.50;;;0.50;;
26963;SDS011;14521;48.148;-1.656;2023-02-03T21:03:26;0.50;;;0.50;;
26963;SDS011;14521;48.148;-1.656;2023-02-03T21:07:09;1.35;;;0.60;;
26963;SDS011;14521;48.148;-1.656;2023-02-03T21:10:35;2.83;;;0.70;;
26963;SDS011;14521;48.148;-1.656;2023-02-03T21:13:57;0.98;;;0.70;;
26963;SDS011;14521;48.148;-1.656;2023-02-03T21:17:21;1.00;;;0.60;;
26963;SDS011;14521;48.148;-1.656;2023-02-03T21:27:46;0.70;;;0.57;;
26963;SDS011;14521;48.148;-1.656;2023-02-03T21:31:19;0.40;;;0.40;;
26963;SDS011;14521;48.148;-1.656;2023-02-03T21:34:43;4.73;;;0.60;;
26963;SDS011;14521;48.148;-1.656;2023-02-03T21:42:41;0.82;;;0.60;;
26963;SDS011;14521;48.148;-1.656;2023-02-03T21:46:01;1.45;;;0.63;;
26963;SDS011;14521;48.148;-1.656;2023-02-03T21:49:24;2.55;;;0.60;;
26963;SDS011;14521;48.148;-1.656;2023-02-03T21:52:46;0.60;;;0.60;;
26963;SDS011;14521;48.148;-1.656;2023-02-03T21:56:15;1.00;;;0.50;;
26963;SDS011;14521;48.148;-1.656;2023-02-03T21:59:39;0.60;;;0.60;;
26963;SDS011;14521;48.148;-1.656;2023-02-03T22:03:03;1.38;;;0.50;;
26963;SDS011;14521;48.148;-1.656;2023-02-03T22:06:37;1.58;;;0.60;;
26963;SDS011;14521;48.148;-1.656;2023-02-03T22:10:01;1.17;;;0.70;;
26963;SDS011;14521;48.148;-1.656;2023-02-03T22:13:23;0.70;;;0.70;;
26963;SDS011;14521;48.148;-1.656;2023-02-03T22:16:46;0.52;;;0.52;;
26963;SDS011;14521;48.148;-1.656;2023-02-03T22:20:08;0.57;;;0.43;;
26963;SDS011;14521;48.148;-1.656;2023-02-03T22:23:31;0.50;;;0.50;;
26963;SDS011;14521;48.148;-1.656;2023-02-03T22:26:54;0.55;;;0.55;;
26963;SDS011;14521;48.148;-1.656;2023-02-03T22:30:20;1.05;;;0.50;;
26963;SDS011;14521;48.148;-1.656;2023-02-03T22:33:43;0.70;;;0.70;;
26963;SDS011;14521;48.148;-1.656;2023-02-03T22:37:05;1.88;;;0.60;;
26963;SDS011;14521;48.148;-1.656;2023-02-03T22:40:27;0.50;;;0.50;;
26963;SDS011;14521;48.148;-1.656;2023-02-03T22:43:50;0.50;;;0.50;;
26963;SDS011;14521;48.148;-1.656;2023-02-03T22:47:12;0.57;;;0.55;;
26963;SDS011;14521;48.148;-1.656;2023-02-03T22:50:35;0.95;;;0.55;;
26963;SDS011;14521;48.148;-1.656;2023-02-03T22:53:57;0.50;;;0.40;;
26963;SDS011;14521;48.148;-1.656;2023-02-03T22:57:19;1.20;;;0.60;;
26963;SDS011;14521;48.148;-1.656;2023-02-03T23:00:42;1.10;;;0.50;;